Time;durP1;ratioP1;P1;durP2;ratioP2;P2;SDS_P1;SDS_P2;PMS_P1;PMS_P2;Temp;Humidity;BMP_temperature;BMP_pressure;BME280_temperature;BME280_humidity;BME280_pressure;Samples;Min_cycle;Max_cycle;Signal;HPM_P1;HPM_P2
2022/07/17 00:03:16;;;;;;;3.05;0.85;;;;;;;13.14;100.00;99310.75;15273925;19;20006;-63
2022/07/17 00:08:21;;;;;;;4.47;0.90;;;;;;;12.98;100.00;99305.22;15282748;19;20010;-62
2022/07/17 00:13:27;;;;;;;4.15;0.98;;;;;;;12.83;100.00;99311.16;15278876;19;20625;-62
2022/07/17 00:18:38;;;;;;;2.28;0.90;;;;;;;12.70;100.00;99321.50;15284453;19;20459;-61
2022/07/17 00:23:43;;;;;;;3.30;0.70;;;;;;;12.59;100.00;99309.91;15276095;19;20021;-61
2022/07/17 00:28:49;;;;;;;2.65;1.00;;;;;;;12.42;100.00;99313.41;15283833;19;20047;-62
2022/07/17 00:33:57;;;;;;;2.70;0.85;;;;;;;12.35;100.00;99301.53;15279118;19;20014;-62
2022/07/17 00:39:02;;;;;;;3.03;0.82;;;;;;;12.26;100.00;99304.13;15277967;19;20014;-62
2022/07/17 00:44:08;;;;;;;2.80;0.80;;;;;;;12.14;100.00;99311.56;15279115;19;20019;-62
2022/07/17 00:49:19;;;;;;;2.95;0.93;;;;;;;11.98;100.00;99314.06;15281334;19;20017;-62
2022/07/17 00:54:25;;;;;;;3.30;1.10;;;;;;;11.85;100.00;99319.75;15269807;19;20572;-61
2022/07/17 00:59:34;;;;;;;3.88;0.90;;;;;;;11.70;100.00;99325.63;15283440;19;20018;-61
2022/07/17 01:04:42;;;;;;;3.47;0.90;;;;;;;11.58;100.00;99326.81;15277613;19;20018;-62
2022/07/17 01:09:47;;;;;;;2.95;0.80;;;;;;;11.44;100.00;99336.19;15275303;19;20043;-60
2022/07/17 01:14:53;;;;;;;2.65;0.70;;;;;;;11.38;100.00;99334.09;15274500;19;20028;-61
2022/07/17 01:20:01;;;;;;;4.22;1.00;;;;;;;11.29;100.00;99343.88;15278196;19;20077;-62
2022/07/17 01:25:10;;;;;;;3.65;0.90;;;;;;;11.24;100.00;99338.06;15276886;19;20038;-62
2022/07/17 01:30:15;;;;;;;5.47;0.90;;;;;;;11.19;100.00;99333.09;15274728;19;20017;-61
2022/07/17 01:35:22;;;;;;;2.95;0.77;;;;;;;11.18;100.00;99335.94;15276583;19;20018;-63
2022/07/17 01:46:21;;;;;;;4.60;0.80;;;;;;;11.15;100.00;99328.13;15275445;19;19979;-62
2022/07/17 01:51:26;;;;;;;6.18;0.93;;;;;;;11.14;100.00;99329.13;15278123;19;20504;-62
2022/07/17 01:56:36;;;;;;;4.03;0.90;;;;;;;11.14;100.00;99339.91;15273999;19;20344;-61
2022/07/17 02:01:43;;;;;;;3.03;0.70;;;;;;;11.14;100.00;99331.81;15269656;19;20015;-61
2022/07/17 02:06:49;;;;;;;5.50;1.05;;;;;;;11.09;100.00;99322.34;15274544;19;20023;-61
2022/07/17 02:11:54;;;;;;;2.70;0.80;;;;;;;11.04;100.00;99316.50;15267960;19;20090;-61
2022/07/17 02:17:02;;;;;;;5.40;0.80;;;;;;;11.00;100.00;99317.75;15271846;19;20038;-61
2022/07/17 02:22:07;;;;;;;3.15;0.93;;;;;;;10.96;100.00;99316.38;15274667;19;20029;-62
2022/07/17 02:27:15;;;;;;;2.67;0.65;;;;;;;10.86;100.00;99323.59;15283776;19;20018;-62
2022/07/17 02:32:22;;;;;;;3.33;1.00;;;;;;;10.77;100.00;99319.91;15284661;19;20031;-62
2022/07/17 02:37:28;;;;;;;3.25;0.80;;;;;;;10.66;100.00;99323.56;15286354;19;20010;-61
2022/07/17 02:42:33;;;;;;;3.95;1.00;;;;;;;10.57;100.00;99319.88;15290366;19;20043;-61
2022/07/17 02:53:32;;;;;;;2.63;0.90;;;;;;;10.36;100.00;99325.31;15284706;19;19986;-64
2022/07/17 02:58:37;;;;;;;2.58;0.88;;;;;;;10.30;100.00;99325.84;15284630;19;20487;-61
2022/07/17 03:03:43;;;;;;;2.22;0.80;;;;;;;10.27;100.00;99326.16;15278742;19;20035;-63
2022/07/17 03:08:51;;;;;;;3.40;1.00;;;;;;;10.24;100.00;99329.13;15284533;19;20471;-64
2022/07/17 03:13:56;;;;;;;3.20;0.90;;;;;;;10.20;100.00;99330.38;15287159;19;20090;-63
2022/07/17 03:19:02;;;;;;;3.10;0.90;;;;;;;10.13;100.00;99330.94;15282352;19;20497;-60
2022/07/17 03:24:10;;;;;;;3.05;0.90;;;;;;;10.11;100.00;99338.28;15284079;19;20023;-64
2022/07/17 03:29:17;;;;;;;4.00;0.80;;;;;;;10.06;100.00;99334.28;15288914;19;20025;-62
2022/07/17 03:34:22;;;;;;;3.13;0.85;;;;;;;10.01;100.00;99335.53;15277846;19;20014;-63
2022/07/17 03:39:29;;;;;;;1.73;0.75;;;;;;;9.97;100.00;99331.44;15286914;19;20018;-61
2022/07/17 03:44:35;;;;;;;4.25;0.85;;;;;;;9.87;100.00;99336.75;15281015;19;20025;-63
2022/07/17 03:49:40;;;;;;;3.85;0.90;;;;;;;9.81;100.00;99340.00;15281532;19;20010;-62
2022/07/17 03:54:49;;;;;;;3.72;1.10;;;;;;;9.80;100.00;99349.06;15279562;19;20014;-59
2022/07/17 03:59:54;;;;;;;2.67;0.80;;;;;;;9.75;100.00;99345.06;15287162;19;20419;-57
2022/07/17 04:04:59;;;;;;;3.13;0.90;;;;;;;9.71;100.00;99352.53;15279767;19;20055;-62
2022/07/17 04:10:09;;;;;;;2.72;0.90;;;;;;;9.71;100.00;99347.13;15279421;19;20377;-57
2022/07/17 04:21:08;;;;;;;5.23;0.93;;;;;;;9.64;100.00;99349.50;15283139;19;20054;-60
2022/07/17 04:26:15;;;;;;;2.42;0.90;;;;;;;9.66;100.00;99352.09;15280540;19;20034;-62
2022/07/17 04:31:20;;;;;;;3.72;0.98;;;;;;;9.64;100.00;99349.50;15284884;19;20113;-62
2022/07/17 04:36:26;;;;;;;3.63;0.80;;;;;;;9.65;100.00;99348.53;15279161;19;20027;-62
2022/07/17 04:41:34;;;;;;;4.03;0.90;;;;;;;9.70;100.00;99350.84;15277385;19;20122;-62
2022/07/17 04:46:39;;;;;;;2.90;0.95;;;;;;;9.74;100.00;99364.88;15280686;19;20048;-61
2022/07/17 04:51:44;;;;;;;1.83;0.82;;;;;;;9.80;100.00;99362.53;15282316;19;20038;-60
2022/07/17 04:56:52;;;;;;;3.65;1.05;;;;;;;9.86;100.00;99370.03;15275787;19;20034;-62
2022/07/17 05:01:58;;;;;;;4.28;0.90;;;;;;;9.92;100.00;99375.91;15279726;19;20464;-61
2022/07/17 05:07:03;;;;;;;2.90;1.00;;;;;;;10.01;100.00;99375.09;15269772;19;20483;-61
2022/07/17 05:12:11;;;;;;;3.45;1.02;;;;;;;10.08;100.00;99378.09;15276753;19;20030;-60
2022/07/17 05:17:15;;;;;;;3.15;0.98;;;;;;;10.16;100.00;99384.53;15283339;19;20006;-61
2022/07/17 05:22:21;;;;;;;4.25;1.00;;;;;;;10.27;100.00;99390.78;15281112;19;20018;-60
2022/07/17 05:27:30;;;;;;;1.73;0.80;;;;;;;10.38;100.00;99393.41;15275746;19;20019;-61
2022/07/17 05:32:35;;;;;;;5.65;1.00;;;;;;;10.47;100.00;99406.06;15279229;19;20042;-60
2022/07/17 05:37:41;;;;;;;3.33;1.00;;;;;;;10.61;100.00;99407.53;15278544;19;20037;-61
2022/07/17 05:42:49;;;;;;;2.70;0.98;;;;;;;10.75;100.00;99414.38;15275506;19;20039;-62
2022/07/17 05:47:56;;;;;;;3.50;0.88;;;;;;;10.93;100.00;99409.19;15271598;19;20011;-61
2022/07/17 05:53:01;;;;;;;3.05;1.00;;;;;;;11.09;100.00;99419.41;15277358;19;20015;-61
2022/07/17 05:58:10;;;;;;;3.40;1.02;;;;;;;11.25;100.00;99420.69;15272461;19;20018;-60
2022/07/17 06:03:16;;;;;;;2.70;0.95;;;;;;;11.39;100.00;99414.88;15288067;19;20015;-59
2022/07/17 06:08:22;;;;;;;6.15;1.13;;;;;;;11.55;100.00;99408.06;15287881;19;20118;-60
2022/07/17 06:13:29;;;;;;;4.75;1.00;;;;;;;11.71;100.00;99412.88;15289162;19;20031;-60
2022/07/17 06:18:35;;;;;;;4.50;1.05;;;;;;;11.87;100.00;99393.38;15281806;19;20019;-61
2022/07/17 06:23:40;;;;;;;4.88;1.00;;;;;;;12.01;100.00;99395.66;15291713;19;20019;-55
2022/07/17 06:28:48;;;;;;;2.47;0.90;;;;;;;12.18;100.00;99404.84;15297932;19;20014;-54
2022/07/17 06:33:53;;;;;;;3.08;0.80;;;;;;;12.39;100.00;99400.22;15300874;19;20017;-61
2022/07/17 06:39:05;;;;;;;3.65;0.90;;;;;;;12.57;100.00;99411.09;15322885;19;20015;-56
2022/07/17 06:44:13;;;;;;;4.47;0.98;;;;;;;12.87;100.00;99403.66;15339999;19;20014;-60
2022/07/17 06:49:20;;;;;;;3.97;1.00;;;;;;;13.03;100.00;99420.06;15353017;19;20010;-60
2022/07/17 06:54:39;;;;;;;3.50;1.00;;;;;;;13.30;100.00;99425.56;15343485;19;20014;-61
2022/07/17 06:59:47;;;;;;;2.88;0.90;;;;;;;13.63;100.00;99436.72;15342339;19;20331;-61
2022/07/17 07:04:53;;;;;;;3.30;0.88;;;;;;;13.90;100.00;99426.78;15342692;19;20062;-61
2022/07/17 07:09:58;;;;;;;5.38;1.00;;;;;;;14.15;100.00;99416.97;15349680;19;20010;-59
2022/07/17 07:15:10;;;;;;;5.72;1.02;;;;;;;14.35;100.00;99424.88;15340408;19;20472;-61
2022/07/17 07:20:25;;;;;;;3.03;0.82;;;;;;;14.55;100.00;99428.19;15337466;19;20010;-60
2022/07/17 07:25:31;;;;;;;1.98;0.75;;;;;;;14.79;100.00;99422.06;15345772;19;20022;-62
2022/07/17 07:30:39;;;;;;;5.22;1.10;;;;;;;14.98;100.00;99420.06;15342088;19;20098;-62
2022/07/17 07:35:44;;;;;;;4.68;1.00;;;;;;;15.17;100.00;99418.94;15325282;19;20145;-61
2022/07/17 07:40:49;;;;;;;3.45;0.90;;;;;;;15.33;100.00;99401.81;15332817;19;20039;-60
2022/07/17 07:45:57;;;;;;;2.70;0.85;;;;;;;15.49;100.00;99400.97;15331515;19;20022;-61
2022/07/17 07:51:03;;;;;;;2.25;1.00;;;;;;;15.72;100.00;99395.72;15329562;19;20042;-61
2022/07/17 07:56:09;;;;;;;4.32;0.90;;;;;;;15.93;100.00;99381.66;15319848;19;20037;-60
2022/07/17 08:01:16;;;;;;;2.55;0.90;;;;;;;16.15;100.00;99379.22;15284865;19;20014;-60
2022/07/17 08:06:22;;;;;;;2.40;0.80;;;;;;;16.37;100.00;99369.44;15272158;19;20373;-61
2022/07/17 08:11:28;;;;;;;1.75;0.80;;;;;;;16.58;100.00;99381.63;15281250;19;20006;-60
2022/07/17 08:16:36;;;;;;;3.30;0.73;;;;;;;16.93;100.00;99382.97;15279016;19;20025;-61
2022/07/17 08:21:41;;;;;;;3.80;1.00;;;;;;;17.00;94.34;99379.53;15275192;19;20022;-60
2022/07/17 08:26:46;;;;;;;4.57;1.00;;;;;;;17.19;94.89;99384.56;15269378;19;20037;-60
2022/07/17 08:31:55;;;;;;;2.83;0.80;;;;;;;17.37;91.54;99397.88;15276176;19;20023;-60
2022/07/17 08:37:00;;;;;;;5.38;0.90;;;;;;;17.44;89.62;99403.44;15274951;19;20459;-61
2022/07/17 08:42:07;;;;;;;4.13;1.13;;;;;;;17.59;93.10;99402.63;15270287;19;20022;-60
2022/07/17 08:47:17;;;;;;;4.65;0.95;;;;;;;17.73;87.05;99403.72;15273973;19;20388;-56
2022/07/17 08:52:22;;;;;;;3.65;0.82;;;;;;;17.91;77.96;99423.31;15278063;19;20012;-59
2022/07/17 08:57:28;;;;;;;2.70;0.90;;;;;;;18.00;76.03;99413.22;15267816;19;20485;-59
2022/07/17 09:02:36;;;;;;;3.63;1.00;;;;;;;18.01;73.19;99407.56;15276407;19;20022;-59
2022/07/17 09:07:49;;;;;;;4.38;0.82;;;;;;;18.21;73.43;99403.44;15276215;19;20014;-59
2022/07/17 09:12:54;;;;;;;2.88;0.90;;;;;;;18.21;71.90;99392.53;15270722;19;20356;-60
2022/07/17 09:18:02;;;;;;;3.13;0.80;;;;;;;18.31;68.48;99380.31;15296555;19;20017;-57
2022/07/17 09:23:08;;;;;;;2.60;0.70;;;;;;;18.51;62.89;99400.75;15290299;19;20003;-61
2022/07/17 09:28:16;;;;;;;3.70;0.80;;;;;;;18.73;65.47;99386.13;15275790;19;20478;-60
2022/07/17 09:33:26;;;;;;;2.03;0.70;;;;;;;18.76;65.03;99390.34;15273588;19;20011;-57
2022/07/17 09:38:33;;;;;;;3.30;0.70;;;;;;;18.89;59.45;99384.19;15281506;19;20006;-62
2022/07/17 09:43:47;;;;;;;2.10;0.75;;;;;;;19.02;57.20;99376.19;15274147;19;20018;-63
2022/07/17 09:48:56;;;;;;;2.05;0.80;;;;;;;18.99;58.56;99371.13;15291905;19;20364;-59
2022/07/17 09:54:04;;;;;;;2.08;0.80;;;;;;;19.24;60.28;99373.47;15308574;19;20046;-62
2022/07/17 09:59:12;;;;;;;2.10;0.70;;;;;;;19.42;57.90;99377.66;15297368;19;20027;-63
2022/07/17 10:04:20;;;;;;;2.58;0.80;;;;;;;19.66;55.62;99381.88;15320694;19;20019;-63
2022/07/17 10:09:25;;;;;;;3.53;0.90;;;;;;;19.65;56.78;99393.84;15327858;19;20013;-61
2022/07/17 10:14:31;;;;;;;2.70;0.68;;;;;;;19.73;53.78;99393.72;15333646;19;20014;-64
2022/07/17 10:19:49;;;;;;;2.25;0.80;;;;;;;19.92;54.14;99384.03;15331020;19;20010;-64
2022/07/17 10:24:56;;;;;;;1.23;0.60;;;;;;;19.97;53.85;99367.84;15308309;19;20030;-62
2022/07/17 10:30:03;;;;;;;2.38;0.80;;;;;;;20.12;52.30;99375.09;15315214;19;20025;-62
2022/07/17 10:35:12;;;;;;;2.22;0.80;;;;;;;20.21;52.47;99382.09;15310707;19;20007;-62
2022/07/17 10:40:22;;;;;;;7.38;1.00;;;;;;;20.24;51.97;99372.63;15324247;19;20340;-64
2022/07/17 10:45:39;;;;;;;2.40;0.80;;;;;;;20.50;49.79;99368.38;15325149;19;20034;-64
2022/07/17 10:50:49;;;;;;;2.63;0.73;;;;;;;20.70;48.42;99361.09;15336942;19;20011;-63
2022/07/17 10:56:04;;;;;;;2.00;0.65;;;;;;;20.87;46.65;99360.75;15337027;19;20339;-60
2022/07/17 11:01:13;;;;;;;2.88;0.82;;;;;;;21.00;47.84;99343.50;15334363;19;20014;-62
2022/07/17 11:06:23;;;;;;;3.63;0.90;;;;;;;21.32;46.39;99352.03;15327881;19;20022;-62
2022/07/17 11:11:39;;;;;;;3.35;0.65;;;;;;;21.53;45.45;99354.56;15343369;19;20082;-61
2022/07/17 11:16:49;;;;;;;2.30;0.70;;;;;;;21.72;46.18;99346.59;15342626;19;20003;-63
2022/07/17 11:22:00;;;;;;;2.78;0.70;;;;;;;21.76;44.86;99347.84;15345645;19;20111;-66
2022/07/17 11:27:05;;;;;;;1.95;0.80;;;;;;;22.17;43.70;99343.97;15349251;19;20064;-66
2022/07/17 11:32:10;;;;;;;1.80;0.60;;;;;;;22.15;43.46;99345.25;15337727;19;20495;-61
2022/07/17 11:37:19;;;;;;;1.50;0.60;;;;;;;22.24;43.84;99340.41;15333651;19;20400;-64
2022/07/17 11:42:27;;;;;;;1.65;0.60;;;;;;;22.34;40.37;99338.03;15336956;19;20011;-65
2022/07/17 11:47:39;;;;;;;1.15;0.55;;;;;;;22.34;40.68;99324.31;15355004;19;20018;-63
2022/07/17 11:52:50;;;;;;;3.03;0.60;;;;;;;22.52;37.66;99329.13;15346884;19;20030;-65
2022/07/17 11:57:59;;;;;;;1.50;0.60;;;;;;;22.61;38.94;99325.09;15327430;19;20014;-59
2022/07/17 12:03:17;;;;;;;0.90;0.50;;;;;;;22.71;37.09;99337.50;15304859;19;20017;-61
2022/07/17 12:08:41;;;;;;;2.03;0.65;;;;;;;22.93;37.44;99329.78;15297497;19;20041;-61
2022/07/17 12:13:53;;;;;;;1.42;0.70;;;;;;;22.95;36.35;99322.19;15289745;19;20010;-61
2022/07/17 12:19:09;;;;;;;2.28;0.65;;;;;;;23.26;37.21;99315.00;15298673;19;20014;-62
2022/07/17 12:24:25;;;;;;;1.40;0.57;;;;;;;23.33;37.27;99313.09;15292733;19;20011;-63
2022/07/17 12:29:31;;;;;;;4.35;0.60;;;;;;;23.73;37.23;99305.53;15299135;19;20088;-62
2022/07/17 12:34:37;;;;;;;2.10;0.60;;;;;;;23.79;37.19;99310.16;15288947;19;20564;-61
2022/07/17 12:39:47;;;;;;;1.25;0.60;;;;;;;23.96;36.90;99305.75;15289914;19;20463;-62
2022/07/17 12:44:55;;;;;;;0.98;0.50;;;;;;;23.99;36.42;99298.97;15283084;19;20011;-63
2022/07/17 12:50:01;;;;;;;1.15;0.60;;;;;;;24.02;37.12;99297.69;15283417;19;20014;-62
2022/07/17 12:55:11;;;;;;;1.58;0.60;;;;;;;24.43;35.85;99287.88;15260971;19;20518;-56
2022/07/17 13:00:16;;;;;;;1.90;0.70;;;;;;;24.50;36.86;99294.16;15265128;19;20015;-58
2022/07/17 13:05:22;;;;;;;2.70;0.70;;;;;;;24.69;36.50;99285.88;15275966;19;20017;-59
2022/07/17 13:10:30;;;;;;;4.40;0.47;;;;;;;24.55;35.26;99282.44;15278271;19;20088;-62
2022/07/17 13:15:36;;;;;;;3.75;0.60;;;;;;;24.49;35.93;99270.44;15270824;19;20027;-59
2022/07/17 13:20:42;;;;;;;0.63;0.50;;;;;;;24.69;36.60;99263.84;15274947;19;20030;-58
2022/07/17 13:25:50;;;;;;;1.08;0.50;;;;;;;25.00;35.71;99265.50;15272265;19;20064;-62
2022/07/17 13:30:55;;;;;;;2.30;0.52;;;;;;;24.85;35.74;99260.44;15269949;19;20377;-62
2022/07/17 13:36:01;;;;;;;0.98;0.60;;;;;;;25.16;35.78;99260.41;15270195;19;20086;-58
2022/07/17 13:41:12;;;;;;;2.42;0.60;;;;;;;25.00;35.67;99267.41;15272277;19;20022;-60
2022/07/17 13:46:17;;;;;;;1.60;0.55;;;;;;;25.23;34.73;99269.38;15267756;19;20007;-57
2022/07/17 13:51:23;;;;;;;1.33;0.57;;;;;;;25.29;34.23;99264.84;15274006;19;20464;-58
2022/07/17 13:56:31;;;;;;;2.35;0.50;;;;;;;25.58;33.56;99263.09;15269484;19;20018;-60
2022/07/17 14:01:36;;;;;;;1.83;0.60;;;;;;;26.35;34.37;99247.41;15265500;19;20018;-59
2022/07/17 14:06:41;;;;;;;7.10;0.57;;;;;;;26.58;32.13;99251.19;15265480;19;20031;-60
2022/07/17 14:11:49;;;;;;;3.38;0.60;;;;;;;26.46;32.36;99248.47;15274354;19;20042;-60
2022/07/17 14:16:54;;;;;;;3.15;0.70;;;;;;;26.60;31.02;99246.25;15269378;19;20491;-59
2022/07/17 14:21:59;;;;;;;1.88;0.60;;;;;;;26.66;31.33;99245.25;15265972;19;20039;-59
2022/07/17 14:27:08;;;;;;;4.18;0.60;;;;;;;26.88;31.47;99248.19;15280731;19;20029;-60
2022/07/17 14:32:13;;;;;;;1.15;0.50;;;;;;;26.99;29.63;99243.66;15285331;19;20031;-60
2022/07/17 14:37:18;;;;;;;4.47;0.60;;;;;;;27.28;30.13;99242.78;15280567;19;20038;-56
2022/07/17 14:42:25;;;;;;;1.42;0.50;;;;;;;27.97;29.10;99238.88;15280972;19;20023;-59
2022/07/17 14:47:30;;;;;;;0.50;0.32;;;;;;;28.53;28.86;99224.88;15284396;19;20015;-59
2022/07/17 14:52:36;;;;;;;2.38;0.68;;;;;;;28.45;29.04;99226.19;15278253;19;20042;-60
2022/07/17 14:57:43;;;;;;;2.08;0.55;;;;;;;28.15;28.11;99223.91;15282669;19;20010;-60
2022/07/17 15:02:48;;;;;;;2.42;0.50;;;;;;;28.19;27.80;99219.50;15280646;19;20015;-60
2022/07/17 15:07:54;;;;;;;2.53;0.50;;;;;;;28.86;27.94;99211.94;15282638;19;20365;-59
2022/07/17 15:13:01;;;;;;;1.20;0.60;;;;;;;28.42;25.87;99217.53;15282021;19;20023;-59
2022/07/17 15:18:07;;;;;;;1.85;0.50;;;;;;;29.17;26.01;99209.44;15284253;19;20085;-57
2022/07/17 15:23:12;;;;;;;1.08;0.43;;;;;;;28.87;25.38;99212.78;15277054;19;20007;-60
2022/07/17 15:28:23;;;;;;;0.80;0.43;;;;;;;29.47;23.87;99210.78;15285298;19;20015;-57
2022/07/17 15:33:28;;;;;;;1.85;0.50;;;;;;;29.88;24.47;99206.59;15277023;19;20502;-56
2022/07/17 15:38:33;;;;;;;2.35;0.50;;;;;;;29.02;25.30;99203.75;15277879;19;20010;-56
2022/07/17 15:43:40;;;;;;;3.60;0.55;;;;;;;29.04;25.74;99201.56;15281128;19;20014;-56
2022/07/17 15:48:45;;;;;;;3.40;0.60;;;;;;;29.12;25.83;99201.06;15281690;19;20022;-57
2022/07/17 15:59:37;;;;;;;2.38;0.57;;;;;;;29.08;25.62;99191.63;15271669;19;19986;-56
2022/07/17 16:04:41;;;;;;;2.15;0.50;;;;;;;29.48;26.19;99189.44;15277214;19;20014;-52
2022/07/17 16:09:46;;;;;;;2.08;0.70;;;;;;;29.45;26.31;99179.72;15280106;19;20033;-52
2022/07/17 16:14:54;;;;;;;2.78;0.50;;;;;;;29.17;25.68;99180.84;15270775;19;20507;-58
2022/07/17 16:20:02;;;;;;;1.10;0.55;;;;;;;29.06;25.86;99177.16;15279757;19;20014;-52
2022/07/17 16:25:07;;;;;;;1.67;0.60;;;;;;;28.85;25.54;99162.28;15279221;19;20047;-55
2022/07/17 16:30:15;;;;;;;0.60;0.40;;;;;;;28.79;26.24;99155.84;15273922;19;20022;-57
2022/07/17 16:35:20;;;;;;;2.45;0.50;;;;;;;28.90;26.33;99152.06;15274805;19;20014;-55
2022/07/17 16:40:25;;;;;;;1.67;0.47;;;;;;;28.84;26.76;99153.13;15277498;19;20032;-54
2022/07/17 16:45:33;;;;;;;3.08;0.50;;;;;;;29.50;26.68;99148.38;15269081;19;20360;-57
2022/07/17 16:50:44;;;;;;;0.95;0.50;;;;;;;30.22;26.54;99147.84;15278219;19;20011;-54
2022/07/17 16:55:49;;;;;;;2.58;0.70;;;;;;;29.69;26.62;99145.97;15276184;19;20022;-57
2022/07/17 17:00:57;;;;;;;2.53;0.60;;;;;;;29.64;26.13;99148.69;15270482;19;20018;-56
2022/07/17 17:06:02;;;;;;;1.08;0.40;;;;;;;29.78;25.81;99137.94;15272576;19;20678;-53
2022/07/17 17:11:07;;;;;;;1.15;0.45;;;;;;;30.20;25.80;99145.34;15276954;19;20574;-56
2022/07/17 17:16:14;;;;;;;0.68;0.50;;;;;;;30.44;25.20;99139.28;15268299;19;20039;-54
2022/07/17 17:21:22;;;;;;;1.27;0.60;;;;;;;30.01;25.58;99133.91;15275278;19;20499;-53
2022/07/17 17:26:27;;;;;;;0.57;0.32;;;;;;;30.20;26.02;99127.81;15270062;19;20475;-55
2022/07/17 17:31:35;;;;;;;1.63;0.60;;;;;;;29.76;26.57;99129.03;15275180;19;20463;-53
2022/07/17 17:36:41;;;;;;;1.73;0.60;;;;;;;29.44;26.49;99127.22;15271930;19;20340;-61
2022/07/17 17:41:46;;;;;;;3.22;0.52;;;;;;;29.00;27.00;99133.81;15273138;19;20467;-57
2022/07/17 17:46:56;;;;;;;1.02;0.50;;;;;;;29.20;27.25;99131.22;15271086;19;20017;-55
2022/07/17 17:52:01;;;;;;;1.30;0.60;;;;;;;29.41;26.96;99127.75;15271039;19;20017;-60
2022/07/17 17:57:09;;;;;;;2.28;0.60;;;;;;;29.16;27.97;99126.47;15279917;19;20011;-53
2022/07/17 18:02:17;;;;;;;1.52;0.50;;;;;;;29.13;28.16;99125.03;15285628;19;20022;-54
2022/07/17 18:07:22;;;;;;;1.67;0.50;;;;;;;28.81;28.71;99125.91;15283992;19;20015;-58
2022/07/17 18:12:27;;;;;;;2.50;0.50;;;;;;;28.56;28.81;99127.34;14777566;19;10001324;-58
2022/07/17 18:17:35;;;;;;;0.90;0.50;;;;;;;28.32;29.47;99125.97;15288547;19;20011;-57
2022/07/17 18:22:50;;;;;;;2.30;0.70;;;;;;;28.01;30.25;99133.94;15280854;19;20010;-60
2022/07/17 18:27:56;;;;;;;0.85;0.40;;;;;;;27.56;30.79;99133.94;15288022;19;20018;-61
2022/07/17 18:33:04;;;;;;;1.67;0.65;;;;;;;26.91;31.58;99139.00;15285626;19;20018;-60
2022/07/17 18:38:10;;;;;;;2.42;0.70;;;;;;;26.29;32.50;99138.75;15280012;19;20455;-58
2022/07/17 18:43:15;;;;;;;2.67;0.63;;;;;;;25.79;33.08;99142.13;15284059;19;20011;-60
2022/07/17 18:48:24;;;;;;;2.03;0.70;;;;;;;25.40;34.37;99148.16;15287679;19;20018;-60
2022/07/17 18:53:29;;;;;;;2.13;0.70;;;;;;;24.90;34.93;99149.47;15277043;19;20496;-62
2022/07/17 18:58:34;;;;;;;1.52;0.68;;;;;;;24.53;36.10;99144.09;15283258;19;20545;-62
2022/07/17 19:03:41;;;;;;;3.70;0.70;;;;;;;24.20;36.75;99149.00;15280020;19;20200;-60
2022/07/17 19:08:47;;;;;;;3.65;0.60;;;;;;;23.85;37.40;99161.50;15266251;19;20474;-60
2022/07/17 19:13:52;;;;;;;4.60;0.63;;;;;;;23.50;37.83;99161.25;15283273;19;20017;-61
2022/07/17 19:19:00;;;;;;;2.17;0.80;;;;;;;23.12;39.09;99171.31;15283571;19;20018;-64
2022/07/17 19:24:06;;;;;;;2.83;0.75;;;;;;;22.89;39.42;99170.03;15277478;19;20014;-60
2022/07/17 19:29:11;;;;;;;2.22;0.70;;;;;;;22.59;39.93;99180.81;15284621;19;20463;-61
2022/07/17 19:34:19;;;;;;;4.20;0.75;;;;;;;22.38;40.01;99185.56;15282475;19;20023;-62
2022/07/17 19:39:24;;;;;;;62.15;55.50;;;;;;;22.14;40.80;99193.50;15280439;19;20023;-61
2022/07/17 19:44:29;;;;;;;10.80;7.60;;;;;;;21.95;41.70;99197.13;15275257;19;20483;-61
2022/07/17 19:49:41;;;;;;;7.85;1.98;;;;;;;21.74;43.43;99201.03;15280134;19;20043;-61
2022/07/17 19:55:02;;;;;;;2.60;1.50;;;;;;;21.62;42.58;99198.09;15281879;19;20018;-60
2022/07/17 20:00:08;;;;;;;3.83;1.77;;;;;;;21.45;43.37;99195.78;15274603;19;20017;-58
2022/07/17 20:05:16;;;;;;;8.32;2.25;;;;;;;21.24;43.78;99205.06;15281414;19;20022;-61
2022/07/17 20:10:20;;;;;;;2.38;0.95;;;;;;;;;;15277466;19;20014;-58
2022/07/17 20:15:25;;;;;;;3.90;0.80;;;;;;;20.88;44.36;99204.44;15271704;19;20027;-60
2022/07/17 20:20:33;;;;;;;4.60;1.10;;;;;;;20.80;44.82;99201.91;15275010;19;20097;-61
2022/07/17 20:25:38;;;;;;;3.83;1.30;;;;;;;20.67;44.59;99212.78;15280573;19;20022;-59
2022/07/17 20:30:43;;;;;;;2.50;1.13;;;;;;;20.57;45.08;99215.97;15273129;19;20897;-59
2022/07/17 20:35:54;;;;;;;5.78;1.08;;;;;;;20.45;45.41;99215.69;15277705;19;20014;-59
2022/07/17 20:41:00;;;;;;;2.05;0.82;;;;;;;20.35;45.91;99210.59;15273682;19;20529;-61
2022/07/17 20:46:05;;;;;;;3.40;1.30;;;;;;;20.23;45.88;99210.38;15249071;19;20023;-61
2022/07/17 20:51:12;;;;;;;8.90;1.48;;;;;;;20.15;45.76;99213.28;15277327;19;20028;-57
2022/07/17 20:56:17;;;;;;;7.05;4.03;;;;;;;20.04;45.88;99222.91;15273130;19;20022;-60
2022/07/17 21:01:24;;;;;;;6.82;3.92;;;;;;;20.00;46.51;99232.56;15271160;19;20022;-54
2022/07/17 21:06:31;;;;;;;5.13;1.58;;;;;;;19.92;46.29;99232.75;15278887;19;20022;-58
2022/07/17 21:11:37;;;;;;;4.05;1.20;;;;;;;19.83;46.88;99235.63;15274492;19;20034;-58
2022/07/17 21:16:42;;;;;;;2.15;0.77;;;;;;;19.69;47.58;99244.78;15276711;19;20010;-57
2022/07/17 21:21:50;;;;;;;2.35;0.80;;;;;;;19.52;48.53;99241.53;15271319;19;20082;-59
2022/07/17 21:26:55;;;;;;;10.65;8.10;;;;;;;19.43;49.10;99251.75;15276165;19;20019;-60
2022/07/17 21:32:00;;;;;;;7.90;3.72;;;;;;;19.28;50.11;99249.13;15275304;19;20042;-59
2022/07/17 21:37:07;;;;;;;5.38;1.00;;;;;;;19.16;50.67;99247.97;15268926;19;20019;-60
2022/07/17 21:42:12;;;;;;;6.63;1.05;;;;;;;19.07;51.48;99239.06;15274231;19;20033;-61
2022/07/17 21:47:17;;;;;;;4.45;0.88;;;;;;;18.93;52.21;99249.00;15270559;19;20018;-62
2022/07/17 21:52:25;;;;;;;2.90;0.90;;;;;;;18.66;54.67;99251.44;15269224;19;20397;-59
2022/07/17 21:57:31;;;;;;;6.68;0.95;;;;;;;18.47;54.39;99253.78;15272399;19;20019;-59
2022/07/17 22:02:36;;;;;;;3.63;1.00;;;;;;;18.42;54.46;99247.19;15266329;19;20010;-59
2022/07/17 22:07:45;;;;;;;1.98;0.73;;;;;;;18.37;52.68;99260.56;15269131;19;20346;-59
2022/07/17 22:12:50;;;;;;;3.17;0.80;;;;;;;18.35;52.15;99263.47;15275623;19;20361;-59
2022/07/17 22:17:56;;;;;;;4.35;1.00;;;;;;;18.35;52.05;99266.22;15271726;19;20487;-58
2022/07/17 22:23:04;;;;;;;3.35;0.93;;;;;;;18.33;52.93;99273.75;15266815;19;20007;-60
2022/07/17 22:28:09;;;;;;;2.30;0.90;;;;;;;18.25;53.33;99271.13;15273083;19;20014;-60
2022/07/17 22:33:14;;;;;;;3.38;0.82;;;;;;;18.22;53.31;99272.38;15277073;19;20010;-56
2022/07/17 22:38:22;;;;;;;5.18;0.88;;;;;;;18.16;54.66;99264.94;15268723;19;20373;-58
2022/07/17 22:43:27;;;;;;;2.05;0.90;;;;;;;18.06;55.53;99258.91;15277449;19;20018;-58
2022/07/17 22:48:32;;;;;;;1.73;0.90;;;;;;;17.98;56.02;99254.41;15285159;19;20035;-56
2022/07/17 22:53:41;;;;;;;2.80;0.90;;;;;;;17.86;57.12;99252.13;15289906;19;20023;-58
2022/07/17 22:58:46;;;;;;;3.83;0.90;;;;;;;17.69;57.47;99247.91;15277271;19;20436;-58
2022/07/17 23:03:53;;;;;;;3.53;0.70;;;;;;;17.60;57.46;99240.84;15259063;19;20039;-62
2022/07/17 23:09:00;;;;;;;1.67;0.80;;;;;;;17.53;57.83;99240.72;15283328;19;20026;-59
2022/07/17 23:14:06;;;;;;;4.82;0.82;;;;;;;17.44;58.22;99241.84;15282640;19;20359;-61
2022/07/17 23:19:11;;;;;;;4.20;0.80;;;;;;;17.36;58.44;99240.91;15282446;19;20010;-58
2022/07/17 23:24:19;;;;;;;6.45;1.00;;;;;;;17.25;59.31;99235.91;15282891;19;20026;-61
2022/07/17 23:29:24;;;;;;;2.22;0.90;;;;;;;17.00;61.32;99240.72;15275078;19;20022;-58
2022/07/17 23:34:28;;;;;;;3.97;1.17;;;;;;;16.94;60.92;99235.00;15285479;19;20027;-58
2022/07/17 23:39:36;;;;;;;2.97;0.93;;;;;;;16.91;60.89;99237.19;15280441;19;20011;-60
2022/07/17 23:44:41;;;;;;;3.25;0.90;;;;;;;16.85;60.53;99236.06;15272085;19;20038;-57
2022/07/17 23:49:46;;;;;;;5.35;0.93;;;;;;;16.75;59.42;99232.75;15280634;19;20018;-58
2022/07/17 23:54:54;;;;;;;4.78;0.85;;;;;;;16.72;59.03;99233.91;15279792;19;20357;-58
2022/07/17 23:59:59;;;;;;;2.45;0.73;;;;;;;16.68;60.62;99223.59;15272974;19;20006;-57
